Time;durP1;ratioP1;P1;durP2;ratioP2;P2;SDS_P1;SDS_P2;PMS_P1;PMS_P2;Temp;Humidity;BMP_temperature;BMP_pressure;BME280_temperature;BME280_humidity;BME280_pressure;Samples;Min_cycle;Max_cycle;Signal;HPM_P1;HPM_P2
2024/01/16 00:01:06;;;;;;;1.17;0.77;;;0.10;94.90;;;;;;5019573;28;20023;-64
2024/01/16 00:03:32;;;;;;;6.88;1.38;;;0.10;94.90;;;;;;5006780;28;20073;-63
2024/01/16 00:05:58;;;;;;;1.20;0.80;;;0.00;94.80;;;;;;5020296;28;20406;-62
2024/01/16 00:08:24;;;;;;;1.67;0.73;;;-0.10;94.80;;;;;;5015821;28;20352;-62
2024/01/16 00:10:50;;;;;;;2.80;0.73;;;-0.10;95.10;;;;;;5020016;28;20537;-63
2024/01/16 00:13:16;;;;;;;1.60;0.77;;;-0.10;95.30;;;;;;5011063;28;20041;-63
2024/01/16 00:15:42;;;;;;;2.70;0.80;;;-0.20;95.40;;;;;;5015579;28;20061;-63
2024/01/16 00:18:08;;;;;;;3.30;0.98;;;-0.20;95.50;;;;;;5012735;28;20025;-63
2024/01/16 00:20:33;;;;;;;1.85;0.90;;;-0.20;95.70;;;;;;5012049;28;20533;-63
2024/01/16 00:23:00;;;;;;;2.97;0.95;;;-0.20;96.00;;;;;;5015720;28;20475;-63
2024/01/16 00:25:25;;;;;;;2.60;1.17;;;-0.20;96.00;;;;;;5017138;28;20033;-62
2024/01/16 00:27:51;;;;;;;2.03;0.85;;;-0.10;96.10;;;;;;5013845;28;20033;-63
2024/01/16 00:30:17;;;;;;;3.28;0.80;;;-0.10;96.20;;;;;;5015770;28;20037;-63
2024/01/16 00:32:42;;;;;;;1.15;0.73;;;-0.10;96.10;;;;;;5014598;28;20508;-63
2024/01/16 00:35:08;;;;;;;2.03;0.70;;;-0.10;96.10;;;;;;5013223;28;20034;-62
2024/01/16 00:37:36;;;;;;;1.60;0.90;;;-0.10;96.10;;;;;;5015316;28;20370;-62
2024/01/16 00:40:04;;;;;;;1.73;0.80;;;0.00;96.10;;;;;;5019550;28;20021;-63
2024/01/16 00:42:30;;;;;;;1.10;0.50;;;0.00;96.20;;;;;;5021705;28;20022;-62
2024/01/16 00:44:55;;;;;;;1.52;0.90;;;0.00;96.30;;;;;;5019364;28;20950;-63
2024/01/16 00:47:21;;;;;;;2.42;0.77;;;0.00;96.20;;;;;;5020123;28;20029;-63
2024/01/16 00:49:47;;;;;;;2.45;1.08;;;0.00;96.30;;;;;;5013480;28;20453;-62
2024/01/16 00:52:12;;;;;;;2.30;1.05;;;0.00;96.30;;;;;;5016883;28;20033;-63
2024/01/16 00:54:39;;;;;;;4.53;1.05;;;0.00;96.20;;;;;;5014427;28;20107;-62
2024/01/16 00:57:04;;;;;;;2.17;0.82;;;0.10;96.30;;;;;;5014624;28;20030;-63
2024/01/16 00:59:30;;;;;;;2.22;0.90;;;0.10;96.20;;;;;;5015107;28;20064;-63
2024/01/16 01:01:56;;;;;;;2.83;1.20;;;0.10;96.40;;;;;;5012434;28;20025;-63
2024/01/16 01:04:21;;;;;;;6.18;1.45;;;0.20;96.50;;;;;;5009045;28;20033;-63
2024/01/16 01:06:46;;;;;;;1.65;1.02;;;0.20;96.80;;;;;;5021145;28;20441;-62
2024/01/16 01:09:12;;;;;;;4.32;1.48;;;0.20;97.20;;;;;;5015415;28;20069;-63
2024/01/16 01:11:38;;;;;;;3.20;1.10;;;0.20;97.70;;;;;;5014187;28;20033;-62
2024/01/16 01:14:04;;;;;;;3.47;1.00;;;0.20;97.90;;;;;;5013774;28;20029;-63
2024/01/16 01:16:29;;;;;;;1.83;1.08;;;0.20;98.20;;;;;;5017810;28;20025;-62
2024/01/16 01:18:55;;;;;;;2.85;1.05;;;0.00;98.90;;;;;;5014231;28;20021;-63
2024/01/16 01:21:21;;;;;;;5.63;1.33;;;0.00;99.30;;;;;;5014448;28;20030;-64
2024/01/16 01:23:46;;;;;;;2.75;1.02;;;0.10;99.80;;;;;;5014657;28;20084;-63
2024/01/16 01:26:13;;;;;;;2.47;0.90;;;0.00;99.90;;;;;;5016728;28;20091;-63
2024/01/16 01:28:40;;;;;;;4.30;0.70;;;0.00;99.90;;;;;;5014313;28;20533;-63
2024/01/16 01:31:08;;;;;;;1.67;0.85;;;0.10;99.90;;;;;;5015633;28;20010;-63
2024/01/16 01:33:33;;;;;;;1.65;0.77;;;0.00;99.90;;;;;;5009387;28;20489;-62
2024/01/16 01:35:58;;;;;;;2.03;0.70;;;0.00;99.90;;;;;;5013961;28;20026;-63
2024/01/16 01:38:24;;;;;;;1.35;0.60;;;0.00;99.90;;;;;;5014552;28;20054;-62
2024/01/16 01:40:49;;;;;;;3.45;0.93;;;-0.10;99.90;;;;;;5015651;28;20025;-62
2024/01/16 01:43:25;;;;;;;5.47;0.90;;;-0.10;99.90;;;;;;5014014;28;20570;-63
2024/01/16 01:46:08;;;;;;;1.33;0.77;;;-0.10;99.90;;;;;;5011091;28;20022;-63
2024/01/16 01:48:34;;;;;;;2.15;0.95;;;-0.10;99.90;;;;;;5016909;28;20041;-64
2024/01/16 01:51:00;;;;;;;2.03;0.88;;;-0.10;99.90;;;;;;5017681;28;20097;-63
2024/01/16 01:53:26;;;;;;;1.52;0.63;;;-0.10;99.90;;;;;;5012104;28;20545;-62
2024/01/16 01:55:53;;;;;;;1.02;0.75;;;-0.10;99.90;;;;;;5013197;28;20118;-63
2024/01/16 01:58:19;;;;;;;2.10;0.90;;;-0.10;99.90;;;;;;5014035;28;20068;-63
2024/01/16 02:00:44;;;;;;;0.73;0.70;;;-0.20;99.90;;;;;;5013428;28;20069;-63
2024/01/16 02:03:10;;;;;;;2.88;0.80;;;-0.20;99.90;;;;;;5013195;28;20034;-64
2024/01/16 02:05:38;;;;;;;2.70;0.95;;;-0.20;99.90;;;;;;5020049;28;20424;-63
2024/01/16 02:08:04;;;;;;;1.20;0.60;;;-0.20;99.90;;;;;;5019802;28;20036;-63
2024/01/16 02:10:30;;;;;;;4.38;0.80;;;-0.20;99.90;;;;;;5020295;28;20033;-63
2024/01/16 02:12:55;;;;;;;0.77;0.70;;;-0.30;99.90;;;;;;5020129;28;20463;-63
2024/01/16 02:15:23;;;;;;;1.00;0.90;;;-0.30;99.90;;;;;;5011439;28;20029;-63
2024/01/16 02:17:49;;;;;;;3.53;0.90;;;-0.40;99.90;;;;;;5014052;28;20028;-63
2024/01/16 02:20:14;;;;;;;3.85;0.90;;;-0.40;99.90;;;;;;5013609;28;20393;-63
2024/01/16 02:22:44;;;;;;;2.53;0.70;;;-0.40;99.90;;;;;;5011443;28;20030;-63
2024/01/16 02:25:10;;;;;;;4.57;0.98;;;-0.50;99.90;;;;;;5013868;28;20391;-63
2024/01/16 02:27:35;;;;;;;3.38;0.88;;;-0.60;99.90;;;;;;5014145;28;20102;-63
2024/01/16 02:30:00;;;;;;;1.25;0.73;;;-0.70;99.90;;;;;;5019417;28;20647;-63
2024/01/16 02:32:26;;;;;;;2.35;0.80;;;-0.80;99.90;;;;;;5015716;28;20026;-63
2024/01/16 02:34:52;;;;;;;0.82;0.52;;;-0.90;99.90;;;;;;5019499;28;20109;-63
2024/01/16 02:37:17;;;;;;;1.83;0.90;;;-1.00;99.90;;;;;;5019426;28;20406;-63
2024/01/16 02:39:43;;;;;;;0.85;0.70;;;-1.10;99.90;;;;;;5019743;28;20056;-62
2024/01/16 02:42:08;;;;;;;2.67;0.80;;;-1.10;99.90;;;;;;5021066;28;20030;-63
2024/01/16 02:44:33;;;;;;;1.13;0.77;;;-1.30;99.90;;;;;;5016231;28;20402;-63
2024/01/16 02:47:00;;;;;;;3.25;1.08;;;-1.40;99.90;;;;;;5018693;28;20025;-63
2024/01/16 02:49:25;;;;;;;2.22;0.90;;;-1.50;99.90;;;;;;5019326;28;20039;-62
2024/01/16 02:51:51;;;;;;;2.33;0.73;;;-1.50;99.90;;;;;;5019508;28;20126;-63
2024/01/16 02:54:17;;;;;;;5.68;0.80;;;-1.60;99.90;;;;;;5019229;28;20509;-62
2024/01/16 02:56:42;;;;;;;2.45;0.70;;;-1.60;99.90;;;;;;5021100;28;20032;-63
2024/01/16 02:59:08;;;;;;;3.10;0.88;;;-1.70;99.90;;;;;;5017987;28;20478;-63
2024/01/16 03:01:33;;;;;;;3.15;0.70;;;-1.80;99.90;;;;;;5013480;28;20037;-63
2024/01/16 03:03:59;;;;;;;3.17;0.95;;;-1.90;99.90;;;;;;5019423;28;20713;-63
2024/01/16 03:06:25;;;;;;;2.63;1.00;;;-2.00;99.90;;;;;;5017954;28;20049;-62
2024/01/16 03:08:51;;;;;;;2.55;0.70;;;-2.10;99.90;;;;;;5021044;28;20099;-64
2024/01/16 03:11:17;;;;;;;2.50;1.00;;;-2.20;99.90;;;;;;5017699;28;20079;-63
2024/01/16 03:13:43;;;;;;;1.50;0.60;;;-2.30;99.90;;;;;;5022961;28;20029;-63
2024/01/16 03:16:09;;;;;;;3.97;0.88;;;-2.40;99.90;;;;;;5016789;28;20068;-63
2024/01/16 03:18:35;;;;;;;1.92;0.70;;;-2.50;99.90;;;;;;5022254;28;20021;-63
2024/01/16 03:21:01;;;;;;;2.63;0.60;;;-2.60;99.90;;;;;;5022822;28;20006;-63
2024/01/16 03:23:26;;;;;;;3.83;0.70;;;-2.70;99.90;;;;;;5022656;28;20045;-62
2024/01/16 03:25:52;;;;;;;2.63;1.10;;;-2.80;99.90;;;;;;5024953;28;20473;-63
2024/01/16 03:28:17;;;;;;;1.33;0.85;;;-2.90;99.90;;;;;;5022756;28;20036;-63
2024/01/16 03:30:43;;;;;;;1.77;0.82;;;-3.00;99.90;;;;;;5023351;28;20333;-63
2024/01/16 03:33:09;;;;;;;2.00;0.90;;;-3.10;99.90;;;;;;5014545;28;20108;-63
2024/01/16 03:35:34;;;;;;;1.13;0.80;;;-3.10;99.90;;;;;;5021410;28;20026;-63
2024/01/16 03:37:59;;;;;;;1.98;1.20;;;-3.20;99.90;;;;;;5022951;28;20460;-63
2024/01/16 03:40:25;;;;;;;1.88;0.85;;;-3.20;99.90;;;;;;5015822;28;20045;-63
2024/01/16 03:42:51;;;;;;;1.48;0.80;;;-3.30;99.90;;;;;;5013340;28;20559;-63
2024/01/16 03:45:16;;;;;;;1.95;0.75;;;-3.30;99.90;;;;;;5017259;28;20105;-63
2024/01/16 03:47:41;;;;;;;1.63;0.93;;;-3.30;99.90;;;;;;5017114;28;20037;-64
2024/01/16 03:50:07;;;;;;;1.33;0.80;;;-3.30;99.90;;;;;;5017522;28;20029;-63
2024/01/16 03:52:33;;;;;;;2.20;1.00;;;-3.30;99.90;;;;;;5015177;28;20554;-63
2024/01/16 03:54:58;;;;;;;1.00;0.70;;;-3.40;99.90;;;;;;5016649;28;20048;-63
2024/01/16 03:57:24;;;;;;;1.55;1.00;;;-3.30;99.90;;;;;;5018276;28;20068;-63
2024/01/16 03:59:50;;;;;;;1.10;0.80;;;-3.30;99.90;;;;;;5015153;28;20463;-63
2024/01/16 04:02:15;;;;;;;3.50;1.13;;;-3.30;99.90;;;;;;5010615;28;20407;-63
2024/01/16 04:04:41;;;;;;;4.40;0.73;;;-3.20;99.90;;;;;;5013936;28;20041;-63
2024/01/16 04:07:06;;;;;;;2.47;1.00;;;-3.20;99.90;;;;;;5016994;28;20080;-62
2024/01/16 04:09:32;;;;;;;1.02;0.90;;;-3.20;99.90;;;;;;5020325;28;20040;-63
2024/01/16 04:11:57;;;;;;;1.77;0.90;;;-3.10;99.90;;;;;;5015104;28;20108;-63
2024/01/16 04:14:23;;;;;;;1.88;0.75;;;-3.10;99.90;;;;;;5019028;28;20729;-63
2024/01/16 04:16:48;;;;;;;2.13;0.90;;;-3.00;99.90;;;;;;5015052;28;20107;-63
2024/01/16 04:19:13;;;;;;;2.78;1.00;;;-2.90;99.90;;;;;;5013035;28;20025;-63
2024/01/16 04:21:39;;;;;;;3.97;1.05;;;-2.80;99.90;;;;;;5012710;28;20178;-63
2024/01/16 04:24:04;;;;;;;1.40;1.02;;;-2.80;99.90;;;;;;5014701;28;20033;-63
2024/01/16 04:26:30;;;;;;;1.98;1.00;;;-2.70;99.90;;;;;;5021471;28;20482;-63
2024/01/16 04:28:55;;;;;;;1.95;1.38;;;-2.70;99.90;;;;;;5021719;28;20054;-63
2024/01/16 04:31:22;;;;;;;2.97;1.70;;;-2.60;99.90;;;;;;5017674;28;20025;-63
2024/01/16 04:33:47;;;;;;;3.78;1.80;;;-2.60;99.90;;;;;;5022313;28;20022;-63
2024/01/16 04:36:13;;;;;;;2.55;1.55;;;-2.60;99.90;;;;;;5020178;28;20399;-62
2024/01/16 04:38:38;;;;;;;4.75;1.67;;;-2.60;99.90;;;;;;5023547;28;20732;-63
2024/01/16 04:41:04;;;;;;;4.20;1.75;;;-2.50;99.90;;;;;;5018214;28;20517;-63
2024/01/16 04:43:30;;;;;;;3.35;1.90;;;-2.50;99.90;;;;;;5013128;28;20036;-62
2024/01/16 04:45:55;;;;;;;3.97;1.58;;;-2.50;99.90;;;;;;5020507;28;20021;-63
2024/01/16 04:48:21;;;;;;;8.65;1.70;;;-2.60;99.90;;;;;;5017549;28;20113;-62
2024/01/16 04:50:46;;;;;;;6.15;2.22;;;-2.60;99.90;;;;;;5017279;28;20712;-62
2024/01/16 04:53:12;;;;;;;4.03;2.00;;;-2.60;99.90;;;;;;5015502;28;20021;-63
2024/01/16 04:55:37;;;;;;;6.63;2.83;;;-2.70;99.90;;;;;;5013566;28;20091;-62
2024/01/16 04:58:03;;;;;;;3.60;1.65;;;-2.70;99.90;;;;;;5015086;28;20041;-64
2024/01/16 05:00:28;;;;;;;6.10;2.10;;;-2.70;99.90;;;;;;5015326;28;20124;-62
2024/01/16 05:02:54;;;;;;;5.95;2.20;;;-2.70;99.90;;;;;;5017021;28;20490;-62
2024/01/16 05:05:19;;;;;;;3.70;2.17;;;-2.80;99.90;;;;;;5015728;28;20034;-63
2024/01/16 05:07:45;;;;;;;3.33;1.80;;;-2.80;99.90;;;;;;5017056;28;20040;-63
2024/01/16 05:10:14;;;;;;;5.95;2.30;;;-2.90;99.90;;;;;;5013259;28;21250;-62
2024/01/16 05:12:40;;;;;;;5.55;2.10;;;-2.80;99.90;;;;;;5017390;28;20088;-63
2024/01/16 05:15:06;;;;;;;6.72;2.53;;;-2.80;99.90;;;;;;5016961;28;20092;-63
2024/01/16 05:17:32;;;;;;;5.47;2.22;;;-2.80;99.90;;;;;;5016947;28;20112;-62
2024/01/16 05:19:58;;;;;;;3.17;1.80;;;-2.70;99.90;;;;;;5013031;28;20107;-62
2024/01/16 05:22:25;;;;;;;5.15;2.17;;;-2.60;99.90;;;;;;5018763;28;20120;-63
2024/01/16 05:24:51;;;;;;;6.55;2.55;;;-2.50;99.90;;;;;;5010549;28;20021;-63
2024/01/16 05:27:16;;;;;;;3.25;1.85;;;-2.50;99.90;;;;;;5020646;28;20109;-62
2024/01/16 05:29:42;;;;;;;2.97;1.92;;;-2.40;99.90;;;;;;5012570;28;20065;-62
2024/01/16 05:32:07;;;;;;;4.43;2.75;;;-2.30;99.90;;;;;;5011455;28;20534;-62
2024/01/16 05:34:32;;;;;;;2.97;2.35;;;-2.20;99.90;;;;;;5012692;28;20040;-62
2024/01/16 05:36:58;;;;;;;6.38;2.58;;;-2.20;99.90;;;;;;5015776;28;20025;-63
2024/01/16 05:39:23;;;;;;;5.72;2.72;;;-2.10;99.90;;;;;;5020747;28;20041;-62
2024/01/16 05:41:50;;;;;;;4.85;2.50;;;-2.00;99.90;;;;;;5018225;28;20025;-62
2024/01/16 05:44:15;;;;;;;4.63;2.72;;;-2.00;99.90;;;;;;5012684;28;20030;-62
2024/01/16 05:46:42;;;;;;;8.70;2.75;;;-2.10;99.90;;;;;;5012499;28;20428;-62
2024/01/16 05:49:08;;;;;;;4.15;2.45;;;-2.10;99.90;;;;;;5018128;28;20107;-62
2024/01/16 05:51:33;;;;;;;5.68;2.40;;;-2.10;99.90;;;;;;5019444;28;20454;-62
2024/01/16 05:53:59;;;;;;;4.50;2.10;;;-2.20;99.90;;;;;;5022126;28;20029;-62
2024/01/16 05:56:24;;;;;;;7.05;3.10;;;-2.20;99.90;;;;;;5020073;28;20393;-62
2024/01/16 05:58:51;;;;;;;6.82;3.97;;;-2.20;99.90;;;;;;5020094;28;20207;-62
2024/01/16 06:01:17;;;;;;;4.43;2.38;;;-2.20;99.90;;;;;;5020166;28;20024;-62
2024/01/16 06:03:45;;;;;;;3.75;2.40;;;-2.10;99.90;;;;;;5014616;28;20026;-62
2024/01/16 06:06:10;;;;;;;3.92;2.90;;;-2.00;99.90;;;;;;5020410;28;20052;-62
2024/01/16 06:08:36;;;;;;;6.53;3.25;;;-2.00;99.90;;;;;;5011894;28;20061;-60
2024/01/16 06:11:01;;;;;;;3.97;2.33;;;-1.90;99.90;;;;;;5019267;28;20029;-62
2024/01/16 06:13:27;;;;;;;4.85;2.72;;;-1.90;99.90;;;;;;5012327;28;20039;-62
2024/01/16 06:15:52;;;;;;;5.57;2.65;;;-1.80;99.90;;;;;;5007220;28;20100;-62
2024/01/16 06:18:18;;;;;;;7.63;3.00;;;-1.80;99.90;;;;;;5014313;28;20576;-62
2024/01/16 06:20:43;;;;;;;4.22;2.60;;;-1.70;99.90;;;;;;5011977;28;20033;-63
2024/01/16 06:23:09;;;;;;;6.05;2.83;;;-1.70;99.90;;;;;;5011989;28;20080;-62
2024/01/16 06:25:34;;;;;;;4.20;2.75;;;-1.60;99.90;;;;;;5007889;28;20456;-62
2024/01/16 06:28:00;;;;;;;11.13;4.05;;;-1.60;99.90;;;;;;5008663;28;20496;-62
2024/01/16 06:30:25;;;;;;;5.13;3.25;;;-1.60;99.90;;;;;;5011197;28;20032;-62
2024/01/16 06:32:51;;;;;;;6.45;3.22;;;-1.50;99.90;;;;;;5011316;28;20083;-63
2024/01/16 06:35:16;;;;;;;5.60;3.20;;;-1.50;99.90;;;;;;5009890;28;20017;-62
2024/01/16 06:37:42;;;;;;;5.95;2.97;;;-1.50;99.90;;;;;;5014169;28;20394;-62
2024/01/16 06:40:09;;;;;;;6.07;3.03;;;-1.50;99.90;;;;;;5014048;28;20482;-63
2024/01/16 06:42:35;;;;;;;3.75;2.88;;;-1.40;99.90;;;;;;5006767;28;20022;-62
2024/01/16 06:45:01;;;;;;;8.60;3.92;;;-1.40;99.90;;;;;;5005922;28;20041;-63
2024/01/16 06:47:27;;;;;;;7.30;3.97;;;-1.40;99.90;;;;;;5008118;28;20443;-62
2024/01/16 06:49:52;;;;;;;7.80;3.58;;;-1.30;99.90;;;;;;5013006;28;20459;-62
2024/01/16 06:52:18;;;;;;;4.97;3.33;;;-1.30;99.90;;;;;;5009950;28;20033;-62
2024/01/16 06:54:43;;;;;;;8.75;3.90;;;-1.30;99.90;;;;;;5014586;28;20032;-62
2024/01/16 06:57:09;;;;;;;10.80;4.20;;;-1.30;99.90;;;;;;5009820;28;20032;-62
2024/01/16 06:59:34;;;;;;;6.40;3.30;;;-1.30;99.90;;;;;;5012696;28;20058;-62
2024/01/16 07:02:00;;;;;;;8.63;4.10;;;-1.30;99.90;;;;;;5005219;28;20049;-63
2024/01/16 07:04:25;;;;;;;9.95;3.85;;;-1.30;99.90;;;;;;5011569;28;20490;-62
2024/01/16 07:06:51;;;;;;;10.90;4.95;;;-1.20;99.90;;;;;;5005864;28;20113;-63
2024/01/16 07:09:18;;;;;;;7.45;3.85;;;-1.30;99.90;;;;;;5010383;28;20026;-63
2024/01/16 07:11:43;;;;;;;9.00;3.90;;;-1.20;99.90;;;;;;5010965;28;20060;-63
2024/01/16 07:14:09;;;;;;;7.07;3.55;;;-1.20;99.90;;;;;;5009737;28;20060;-63
2024/01/16 07:16:35;;;;;;;8.90;4.15;;;-1.20;99.90;;;;;;5012168;28;20095;-63
2024/01/16 07:19:02;;;;;;;9.70;3.83;;;-1.10;99.90;;;;;;5019657;28;20122;-63
2024/01/16 07:21:27;;;;;;;10.18;3.85;;;-1.20;99.90;;;;;;5011058;28;20493;-62
2024/01/16 07:23:53;;;;;;;9.68;4.35;;;-1.10;99.90;;;;;;5012937;28;20105;-63
2024/01/16 07:26:19;;;;;;;10.10;3.65;;;-1.10;99.90;;;;;;5014659;28;20032;-63
2024/01/16 07:28:44;;;;;;;12.55;5.07;;;-1.10;99.90;;;;;;5013132;28;20045;-62
2024/01/16 07:31:11;;;;;;;13.20;3.95;;;-1.10;99.90;;;;;;5009709;28;20032;-62
2024/01/16 07:33:36;;;;;;;7.47;4.43;;;-1.10;99.90;;;;;;5007623;28;20549;-62
2024/01/16 07:36:02;;;;;;;7.80;3.83;;;-1.00;99.90;;;;;;5010071;28;20161;-62
2024/01/16 07:38:28;;;;;;;9.73;4.38;;;-1.00;99.90;;;;;;5014901;28;20029;-61
2024/01/16 07:40:53;;;;;;;11.98;4.63;;;-1.00;99.90;;;;;;5012875;28;20022;-63
2024/01/16 07:43:19;;;;;;;9.88;3.97;;;-0.90;99.90;;;;;;5009926;28;20036;-62
2024/01/16 07:45:44;;;;;;;12.23;4.85;;;-0.90;99.90;;;;;;5003012;28;20038;-63
2024/01/16 07:48:10;;;;;;;5.90;3.55;;;-0.90;99.90;;;;;;5006910;28;20189;-63
2024/01/16 07:50:36;;;;;;;7.25;3.90;;;-0.90;99.90;;;;;;5019147;28;20052;-63
2024/01/16 07:53:01;;;;;;;8.45;4.30;;;-0.90;99.90;;;;;;5002171;28;20738;-63
2024/01/16 07:55:27;;;;;;;12.57;4.53;;;-1.00;99.90;;;;;;5012889;28;20071;-63
2024/01/16 07:57:53;;;;;;;11.38;4.50;;;-1.00;99.90;;;;;;5008576;28;20105;-62
2024/01/16 08:00:19;;;;;;;8.48;4.32;;;-0.90;99.90;;;;;;5015902;28;20120;-63
2024/01/16 08:02:45;;;;;;;7.95;3.83;;;-1.00;99.90;;;;;;5012358;28;20147;-63
2024/01/16 08:05:10;;;;;;;7.65;3.30;;;-1.10;99.90;;;;;;5016329;28;20052;-62
2024/01/16 08:07:36;;;;;;;6.97;3.65;;;-1.10;99.90;;;;;;5012821;28;20040;-62
2024/01/16 08:10:02;;;;;;;5.93;3.50;;;-1.10;99.90;;;;;;5005486;28;20045;-62
2024/01/16 08:12:28;;;;;;;6.85;3.13;;;-1.00;99.90;;;;;;5011484;28;20119;-62
2024/01/16 08:14:53;;;;;;;8.13;3.70;;;-1.00;99.90;;;;;;5016749;28;20032;-62
2024/01/16 08:17:19;;;;;;;8.43;3.63;;;-0.90;99.90;;;;;;5015695;28;20116;-62
2024/01/16 08:19:44;;;;;;;9.13;3.33;;;-0.80;99.90;;;;;;5010553;28;20099;-62
2024/01/16 08:22:10;;;;;;;7.95;3.35;;;-0.80;99.90;;;;;;5010483;28;20547;-62
2024/01/16 08:24:36;;;;;;;7.10;3.70;;;-0.70;99.90;;;;;;5004806;28;20030;-62
2024/01/16 08:27:02;;;;;;;10.25;4.10;;;-0.70;99.90;;;;;;5010732;28;20669;-62
2024/01/16 08:29:28;;;;;;;18.02;7.05;;;-0.60;99.90;;;;;;5012658;28;20033;-62
2024/01/16 08:31:53;;;;;;;11.50;4.95;;;-0.50;99.90;;;;;;5004730;28;20038;-63
2024/01/16 08:34:19;;;;;;;10.63;5.07;;;-0.40;99.90;;;;;;5006430;28;20018;-62
2024/01/16 08:36:46;;;;;;;15.65;6.15;;;-0.40;99.90;;;;;;5008632;28;20026;-62
2024/01/16 08:39:11;;;;;;;16.35;5.85;;;-0.30;99.90;;;;;;5017313;28;20083;-62
2024/01/16 08:41:37;;;;;;;10.48;5.10;;;-0.20;99.90;;;;;;5007053;28;20034;-63
2024/01/16 08:44:03;;;;;;;18.63;6.75;;;-0.20;99.90;;;;;;5009321;28;20128;-63
2024/01/16 08:46:28;;;;;;;12.75;6.30;;;-0.20;99.90;;;;;;5013804;28;20072;-63
2024/01/16 08:48:54;;;;;;;13.63;6.07;;;-0.10;99.90;;;;;;5008507;28;20052;-63
2024/01/16 08:51:19;;;;;;;10.57;5.70;;;0.00;99.90;;;;;;5017646;28;20438;-62
2024/01/16 08:53:45;;;;;;;14.73;6.70;;;0.10;99.90;;;;;;5014923;28;20724;-62
2024/01/16 08:56:12;;;;;;;11.73;7.05;;;0.10;99.90;;;;;;5006663;28;20494;-62
2024/01/16 08:58:38;;;;;;;12.55;7.45;;;0.20;99.90;;;;;;5014202;28;20055;-62
2024/01/16 09:01:06;;;;;;;10.90;5.53;;;0.20;99.90;;;;;;5012083;28;20045;-62
2024/01/16 09:03:33;;;;;;;9.60;5.07;;;0.20;99.90;;;;;;5006576;28;20026;-63
2024/01/16 09:05:59;;;;;;;10.52;5.47;;;0.20;99.90;;;;;;5012206;28;20486;-62
2024/01/16 09:08:26;;;;;;;13.75;6.78;;;0.20;99.90;;;;;;5011478;28;20125;-62
2024/01/16 09:10:52;;;;;;;26.63;11.77;;;0.20;99.90;;;;;;5014921;28;20113;-63
2024/01/16 09:13:18;;;;;;;22.48;10.25;;;0.20;99.90;;;;;;5012712;28;20064;-62
2024/01/16 09:15:43;;;;;;;18.08;8.90;;;0.20;99.90;;;;;;5009946;28;20614;-63
2024/01/16 09:18:09;;;;;;;16.23;8.20;;;0.20;99.90;;;;;;5014408;28;20026;-62
2024/01/16 09:20:34;;;;;;;20.02;10.00;;;0.20;99.90;;;;;;5016326;28;20030;-62
2024/01/16 09:23:00;;;;;;;16.08;7.75;;;0.30;99.90;;;;;;5018378;28;20025;-63
2024/01/16 09:25:27;;;;;;;18.90;10.32;;;0.30;99.90;;;;;;5018682;28;20091;-61
2024/01/16 09:27:53;;;;;;;22.50;11.20;;;0.30;99.90;;;;;;5003307;28;20025;-62
2024/01/16 09:30:19;;;;;;;37.13;17.60;;;0.40;99.90;;;;;;5014333;28;20087;-63
2024/01/16 09:32:45;;;;;;;24.15;11.70;;;0.50;99.90;;;;;;5013572;28;20022;-63
2024/01/16 09:35:11;;;;;;;21.75;10.38;;;0.50;99.90;;;;;;5009833;28;20021;-62
2024/01/16 09:37:36;;;;;;;15.23;7.63;;;0.60;99.90;;;;;;5015482;28;20523;-62
2024/01/16 09:40:05;;;;;;;16.67;8.88;;;0.70;99.90;;;;;;5015148;28;20024;-61
2024/01/16 09:42:30;;;;;;;13.70;7.30;;;0.70;99.90;;;;;;5015270;28;20127;-62
2024/01/16 09:44:56;;;;;;;13.80;6.93;;;0.70;99.90;;;;;;5022952;28;20505;-62
2024/01/16 09:47:24;;;;;;;13.57;7.20;;;0.70;99.90;;;;;;5017154;28;20546;-62
2024/01/16 09:49:49;;;;;;;12.52;7.50;;;0.60;99.90;;;;;;5011635;28;20118;-62
2024/01/16 09:52:15;;;;;;;14.07;8.40;;;0.60;99.90;;;;;;5012110;28;20466;-62
2024/01/16 09:54:40;;;;;;;16.80;8.55;;;0.60;99.90;;;;;;5016534;28;20034;-62
2024/01/16 09:57:07;;;;;;;12.23;7.18;;;0.60;99.90;;;;;;5006501;28;20035;-62
2024/01/16 09:59:35;;;;;;;16.42;7.90;;;0.60;99.90;;;;;;5013991;28;20046;-61
2024/01/16 10:02:05;;;;;;;13.60;6.75;;;0.60;99.90;;;;;;5011300;28;20025;-63
2024/01/16 10:04:31;;;;;;;12.10;6.72;;;0.70;99.90;;;;;;5014765;28;20405;-62
2024/01/16 10:06:58;;;;;;;10.50;6.20;;;0.80;99.90;;;;;;5013663;28;20021;-62
2024/01/16 10:09:23;;;;;;;12.32;7.22;;;0.80;99.90;;;;;;5009302;28;20056;-63
2024/01/16 10:11:50;;;;;;;16.25;7.30;;;0.80;99.90;;;;;;5008475;28;20068;-63
2024/01/16 10:14:17;;;;;;;16.42;7.90;;;0.70;99.90;;;;;;5008499;28;20083;-64
2024/01/16 10:16:59;;;;;;;16.25;7.65;;;0.70;99.90;;;;;;5010128;28;20049;-63
2024/01/16 10:19:27;;;;;;;13.05;6.35;;;0.60;99.90;;;;;;5010108;28;20196;-61
2024/01/16 10:22:03;;;;;;;13.23;7.60;;;0.60;99.90;;;;;;5019343;28;20025;-62
2024/01/16 10:24:29;;;;;;;14.60;7.95;;;0.50;99.90;;;;;;5007077;28;20021;-62
2024/01/16 10:27:03;;;;;;;21.10;9.07;;;0.60;99.90;;;;;;5010116;28;20063;-62
2024/01/16 10:29:29;;;;;;;12.55;7.05;;;0.60;99.90;;;;;;5018235;28;20026;-62
2024/01/16 10:31:55;;;;;;;13.30;7.25;;;0.60;99.90;;;;;;5003605;28;20028;-63
2024/01/16 10:34:22;;;;;;;11.35;6.57;;;0.60;99.90;;;;;;5011628;28;20025;-63
2024/01/16 10:36:57;;;;;;;16.30;7.57;;;0.60;99.90;;;;;;5013465;28;20116;-62
2024/01/16 10:39:23;;;;;;;15.57;7.20;;;0.60;99.90;;;;;;5009277;28;20104;-62
2024/01/16 10:41:56;;;;;;;9.52;5.60;;;0.60;99.90;;;;;;5012488;28;20117;-63
2024/01/16 10:44:22;;;;;;;10.77;7.13;;;0.50;99.90;;;;;;5007526;28;20041;-63
2024/01/16 10:46:48;;;;;;;11.30;6.43;;;0.60;99.90;;;;;;5013053;28;20033;-63
2024/01/16 10:49:13;;;;;;;16.02;7.45;;;0.70;99.90;;;;;;5015371;28;20093;-63
2024/01/16 10:51:43;;;;;;;17.38;8.40;;;0.60;99.90;;;;;;5006087;28;20040;-63
2024/01/16 10:54:13;;;;;;;16.20;6.60;;;0.70;99.90;;;;;;5008534;28;20029;-63
2024/01/16 10:56:44;;;;;;;18.83;7.25;;;0.80;99.90;;;;;;5007218;28;20099;-63
2024/01/16 10:59:21;;;;;;;11.95;6.65;;;0.90;99.90;;;;;;5012714;28;20037;-63
2024/01/16 11:01:53;;;;;;;10.88;6.45;;;1.10;99.90;;;;;;5002398;28;20026;-62
2024/01/16 11:04:20;;;;;;;12.65;7.10;;;1.20;99.90;;;;;;5007764;28;20045;-62
2024/01/16 11:06:47;;;;;;;10.60;5.50;;;1.30;99.90;;;;;;5016098;28;20030;-63
2024/01/16 11:09:15;;;;;;;12.50;6.30;;;1.40;99.90;;;;;;5002533;28;20041;-63
2024/01/16 11:11:44;;;;;;;15.30;6.38;;;1.50;99.90;;;;;;5007743;28;20053;-63
2024/01/16 11:14:10;;;;;;;10.35;5.93;;;1.60;99.90;;;;;;5013838;28;20023;-62
2024/01/16 11:16:36;;;;;;;9.60;5.55;;;1.60;99.90;;;;;;5007105;28;20497;-63
2024/01/16 11:19:06;;;;;;;8.35;5.13;;;1.70;99.90;;;;;;5010302;28;20043;-64
2024/01/16 11:21:31;;;;;;;9.77;5.53;;;1.70;99.90;;;;;;5004673;28;20026;-63
2024/01/16 11:23:57;;;;;;;12.85;7.10;;;1.80;99.90;;;;;;5009427;28;20030;-63
2024/01/16 11:26:33;;;;;;;17.40;10.10;;;1.90;99.90;;;;;;5013557;28;20022;-62
2024/01/16 11:29:00;;;;;;;13.77;7.82;;;1.90;99.90;;;;;;5001395;28;20399;-62
2024/01/16 11:31:31;;;;;;;14.63;7.07;;;1.90;99.90;;;;;;5011419;28;20040;-61
2024/01/16 11:33:59;;;;;;;21.70;10.75;;;2.00;99.90;;;;;;5008214;28;20045;-63
2024/01/16 11:36:56;;;;;;;16.52;7.72;;;2.00;99.90;;;;;;5012361;28;20494;-63
2024/01/16 11:39:24;;;;;;;19.00;6.97;;;1.90;99.90;;;;;;5015176;28;20025;-62
2024/01/16 11:41:57;;;;;;;33.72;13.23;;;1.90;99.90;;;;;;5017762;28;20049;-62
2024/01/16 11:44:43;;;;;;;21.02;16.42;;;2.00;99.90;;;;;;5011812;28;20042;-63
2024/01/16 11:47:14;;;;;;;79.38;24.27;;;2.00;99.90;;;;;;5013891;28;20032;-63
2024/01/16 11:49:40;;;;;;;29.85;12.23;;;2.00;99.90;;;;;;5010541;28;20034;-62
2024/01/16 11:52:06;;;;;;;43.60;12.70;;;2.00;99.90;;;;;;5012638;28;20497;-63
2024/01/16 11:54:33;;;;;;;19.90;8.93;;;2.00;99.90;;;;;;4997075;28;20033;-62
2024/01/16 11:57:17;;;;;;;24.27;9.95;;;2.00;99.90;;;;;;5016854;28;20452;-63
2024/01/16 12:00:03;;;;;;;37.30;17.48;;;2.00;99.90;;;;;;5007242;28;20449;-63
2024/01/16 12:02:53;;;;;;;13.63;5.97;;;1.90;99.90;;;;;;5006091;28;20035;-62
2024/01/16 12:05:19;;;;;;;15.95;8.77;;;1.80;99.90;;;;;;5015710;28;20268;-63
2024/01/16 12:07:53;;;;;;;13.38;6.40;;;1.80;99.90;;;;;;5018788;28;20100;-62
2024/01/16 12:10:24;;;;;;;13.13;6.68;;;1.90;99.90;;;;;;5013303;28;20057;-64
2024/01/16 12:12:51;;;;;;;10.82;5.50;;;1.90;99.90;;;;;;5011742;28;20029;-62
2024/01/16 12:15:20;;;;;;;12.10;6.53;;;2.00;99.90;;;;;;5009153;28;20076;-63
2024/01/16 12:18:03;;;;;;;10.60;4.82;;;2.00;99.90;;;;;;5015379;28;20052;-63
2024/01/16 12:20:31;;;;;;;12.00;4.50;;;2.00;99.90;;;;;;5008171;28;20398;-63
2024/01/16 12:23:04;;;;;;;12.18;5.32;;;2.00;99.90;;;;;;5005276;28;20018;-63
2024/01/16 12:25:31;;;;;;;9.55;4.88;;;2.00;99.90;;;;;;5012210;28;20100;-64
2024/01/16 12:28:01;;;;;;;8.20;4.35;;;2.00;99.90;;;;;;5008295;28;20029;-63
2024/01/16 12:30:32;;;;;;;7.78;3.60;;;2.00;99.90;;;;;;5010875;28;20038;-64
2024/01/16 12:33:10;;;;;;;5.65;3.38;;;2.00;99.90;;;;;;5014692;28;20653;-63
2024/01/16 12:35:37;;;;;;;9.68;4.28;;;2.10;99.90;;;;;;5019613;28;20489;-64
2024/01/16 12:38:10;;;;;;;5.32;3.67;;;2.10;99.90;;;;;;5012665;28;20034;-64
2024/01/16 12:40:37;;;;;;;5.38;2.80;;;2.10;99.90;;;;;;5010912;28;20514;-63
2024/01/16 12:43:04;;;;;;;6.63;3.30;;;2.10;99.90;;;;;;5008563;28;20041;-63
2024/01/16 12:45:31;;;;;;;10.65;3.20;;;2.10;99.90;;;;;;5009438;28;20030;-64